createdAt,value
2018-10-11T00:00:01.525Z,74.21
2018-10-11T00:01:01.515Z,73.77
2018-10-11T00:02:01.544Z,73.97
2018-10-11T00:03:01.495Z,73.77
2018-10-11T00:04:01.553Z,73.36
2018-10-11T00:05:01.866Z,73.16
2018-10-11T00:06:01.544Z,73.47
2018-10-11T00:07:01.506Z,73.80
2018-10-11T00:08:01.544Z,73.80
2018-10-11T00:09:01.431Z,74.18
2018-10-11T00:10:01.526Z,73.77
2018-10-11T00:11:01.540Z,73.77
2018-10-11T00:12:01.413Z,72.96
2018-10-11T00:13:01.383Z,72.34
2018-10-11T00:14:01.383Z,73.16
2018-10-11T00:15:01.377Z,72.78
2018-10-11T00:16:01.411Z,73.16
2018-10-11T00:17:01.405Z,73.40
2018-10-11T00:18:01.380Z,73.50
2018-10-11T00:19:01.367Z,73.40
2018-10-11T00:20:01.513Z,73.19
2018-10-11T00:21:01.334Z,73.16
2018-10-11T00:22:01.315Z,73.71
2018-10-11T00:23:01.335Z,73.30
2018-10-11T00:24:01.274Z,72.55
2018-10-11T00:25:01.354Z,72.78
2018-10-11T00:26:01.247Z,72.69
2018-10-11T00:27:01.347Z,72.86
2018-10-11T00:28:01.282Z,72.65
2018-10-11T00:29:01.285Z,71.84
2018-10-11T00:30:01.229Z,71.67
2018-10-11T00:31:01.217Z,71.53
2018-10-11T00:32:01.185Z,71.67
2018-10-11T00:33:01.215Z,71.36
2018-10-11T00:34:01.171Z,71.97
2018-10-11T00:35:01.149Z,71.87
2018-10-11T00:36:01.150Z,72.69
2018-10-11T00:37:01.146Z,71.97
2018-10-11T00:38:01.114Z,71.97
2018-10-11T00:39:01.120Z,72.58
2018-10-11T00:40:01.114Z,72.48
2018-10-11T00:41:01.218Z,72.58
2018-10-11T00:42:01.078Z,71.67
2018-10-11T00:43:01.201Z,71.67
2018-10-11T00:44:01.062Z,72.17
2018-10-11T00:45:01.078Z,71.77
2018-10-11T00:46:01.086Z,71.91
2018-10-11T00:47:01.048Z,71.80
2018-10-11T00:48:01.190Z,71.91
2018-10-11T00:49:01.002Z,72.11
2018-10-11T00:50:01.011Z,72.92
2018-10-11T00:51:01.078Z,73.02
2018-10-11T00:52:00.991Z,72.72
2018-10-11T00:53:00.976Z,71.60
2018-10-11T00:54:00.951Z,71.60
2018-10-11T00:55:00.998Z,71.30
2018-10-11T00:56:00.946Z,71.39
2018-10-11T00:57:00.940Z,71.09
2018-10-11T00:58:00.903Z,71.39
2018-10-11T00:59:00.896Z,70.95
2018-10-11T01:00:00.902Z,71.26
2018-10-11T01:01:00.935Z,71.19
2018-10-11T01:02:00.876Z,70.99
2018-10-11T01:03:00.871Z,71.09
2018-10-11T01:04:00.892Z,71.09
2018-10-11T01:05:00.878Z,71.50
2018-10-11T01:06:00.836Z,71.43
2018-10-11T01:07:00.919Z,71.53
2018-10-11T01:08:00.803Z,71.50
2018-10-11T01:09:00.793Z,71.09
2018-10-11T01:10:00.851Z,71.23
2018-10-11T01:11:00.960Z,70.99
2018-10-11T01:12:01.225Z,71.53
2018-10-11T01:13:00.755Z,71.84
2018-10-11T01:14:00.738Z,72.08
2018-10-11T01:15:00.779Z,72.79
2018-10-11T01:16:00.713Z,72.82
2018-10-11T01:17:00.731Z,73.74
2018-10-11T01:18:00.708Z,73.03
2018-10-11T01:19:00.683Z,73.03
2018-10-11T01:20:00.718Z,73.64
2018-10-11T01:21:00.768Z,73.13
2018-10-11T01:22:00.686Z,72.72
2018-10-11T01:23:00.648Z,72.92
2018-10-11T01:24:00.629Z,73.03
2018-10-11T01:25:00.652Z,73.33
2018-10-11T01:26:00.616Z,72.72
2018-10-11T01:27:00.630Z,72.72
2018-10-11T01:28:00.663Z,72.92
2018-10-11T01:29:00.905Z,72.69
2018-10-11T01:30:00.717Z,72.28
2018-10-11T01:31:00.575Z,72.92
2018-10-11T01:32:00.554Z,72.92
2018-10-11T01:33:00.548Z,72.72
2018-10-11T01:34:00.529Z,73.03
2018-10-11T01:35:00.504Z,72.52
2018-10-11T01:36:00.496Z,72.82
2018-10-11T01:37:00.520Z,72.82
2018-10-11T01:38:00.473Z,72.82
2018-10-11T01:39:00.491Z,72.31
2018-10-11T01:40:00.455Z,72.04
2018-10-11T01:41:00.440Z,72.82
2018-10-11T01:42:00.440Z,72.86
2018-10-11T01:43:00.429Z,72.82
2018-10-11T01:44:00.459Z,72.86
2018-10-11T01:45:00.409Z,73.13
2018-10-11T01:46:00.493Z,72.86
2018-10-11T01:47:00.405Z,72.45
2018-10-11T01:48:00.405Z,73.19
2018-10-11T01:49:00.362Z,73.06
2018-10-11T01:50:00.342Z,73.47
2018-10-11T01:51:00.333Z,73.88
2018-10-11T01:52:00.387Z,73.27
2018-10-11T01:53:00.316Z,72.69
2018-10-11T01:54:00.340Z,72.86
2018-10-11T01:55:00.318Z,72.99
2018-10-11T01:56:00.284Z,72.99
2018-10-11T01:57:00.282Z,72.58
2018-10-11T01:58:00.257Z,72.58
2018-10-11T01:59:00.252Z,72.99
2018-10-11T02:00:00.246Z,72.79
2018-10-11T02:01:00.273Z,72.99
2018-10-11T02:02:00.228Z,72.99
2018-10-11T02:03:00.212Z,72.24
2018-10-11T02:04:00.201Z,72.14
2018-10-11T02:05:00.207Z,72.89
2018-10-11T02:06:00.234Z,72.14
2018-10-11T02:07:00.177Z,72.96
2018-10-11T02:08:00.168Z,72.86
2018-10-11T02:09:00.176Z,72.96
2018-10-11T02:10:00.142Z,73.27
2018-10-11T02:11:00.143Z,73.19
2018-10-11T02:12:00.150Z,72.79
2018-10-11T02:13:00.102Z,72.34
2018-10-11T02:14:00.095Z,73.19
2018-10-11T02:15:00.154Z,72.89
2018-10-11T02:16:00.068Z,72.38
2018-10-11T02:17:00.059Z,73.54
2018-10-11T02:18:00.052Z,73.23
2018-10-11T02:19:00.037Z,73.03
2018-10-11T02:20:00.031Z,73.23
2018-10-11T02:21:00.020Z,73.94
2018-10-11T02:22:00.013Z,73.13
2018-10-11T02:23:00.014Z,73.33
2018-10-11T02:23:59.981Z,73.54
2018-10-11T02:24:59.970Z,73.23
2018-10-11T02:25:59.969Z,73.27
2018-10-11T02:26:59.966Z,73.27
2018-10-11T02:27:59.935Z,73.77
2018-10-11T02:28:59.934Z,73.94
2018-10-11T02:29:59.957Z,73.77
2018-10-11T02:30:59.947Z,73.57
2018-10-11T02:32:00.009Z,73.16
2018-10-11T02:32:59.885Z,73.47
2018-10-11T02:33:59.872Z,73.68
2018-10-11T02:34:59.874Z,73.23
2018-10-11T02:35:59.885Z,73.13
2018-10-11T02:36:59.855Z,73.06
2018-10-11T02:37:59.844Z,72.65
2018-10-11T02:38:59.842Z,73.27
2018-10-11T02:39:59.838Z,73.36
2018-10-11T02:40:59.806Z,73.61
2018-10-11T02:41:59.807Z,73.16
2018-10-11T02:42:59.788Z,73.50
2018-10-11T02:43:59.770Z,73.36
2018-10-11T02:44:59.764Z,73.16
2018-10-11T02:45:59.749Z,73.47
2018-10-11T02:46:59.734Z,72.65
2018-10-11T02:47:59.746Z,73.06
2018-10-11T02:48:59.710Z,72.45
2018-10-11T02:49:59.704Z,72.75
2018-10-11T02:50:59.692Z,73.36
2018-10-11T02:51:59.713Z,72.89
2018-10-11T02:52:59.670Z,73.47
2018-10-11T02:53:59.668Z,72.96
2018-10-11T02:54:59.662Z,72.86
2018-10-11T02:55:59.641Z,73.40
2018-10-11T02:56:59.688Z,72.86
2018-10-11T02:57:59.640Z,72.99
2018-10-11T02:58:59.606Z,72.45
2018-10-11T02:59:59.601Z,73.57
2018-10-11T03:00:59.579Z,74.02
2018-10-11T03:01:59.611Z,73.91
2018-10-11T03:02:59.567Z,72.79
2018-10-11T03:03:59.567Z,73.10
2018-10-11T03:04:59.575Z,73.30
2018-10-11T03:05:59.554Z,73.30
2018-10-11T03:06:59.531Z,73.91
2018-10-11T03:07:59.542Z,73.81
2018-10-11T03:08:59.546Z,73.85
2018-10-11T03:09:59.490Z,73.94
2018-10-11T03:10:59.479Z,73.33
2018-10-11T03:11:59.463Z,74.05
2018-10-11T03:12:59.499Z,72.52
2018-10-11T03:13:59.448Z,73.33
2018-10-11T03:14:59.437Z,72.41
2018-10-11T03:15:59.423Z,72.21
2018-10-11T03:16:59.413Z,72.41
2018-10-11T03:17:59.423Z,71.77
2018-10-11T03:18:59.395Z,71.77
2018-10-11T03:19:59.426Z,71.66
2018-10-11T03:20:59.366Z,71.77
2018-10-11T03:21:59.357Z,71.56
2018-10-11T03:22:59.369Z,71.25
2018-10-11T03:23:59.342Z,71.87
2018-10-11T03:24:59.327Z,71.77
2018-10-11T03:25:59.321Z,71.77
2018-10-11T03:26:59.308Z,72.00
2018-10-11T03:27:59.315Z,71.80
2018-10-11T03:28:59.285Z,71.80
2018-10-11T03:29:59.278Z,72.11
2018-10-11T03:30:59.265Z,73.16
2018-10-11T03:31:59.299Z,73.20
2018-10-11T03:32:59.305Z,73.06
2018-10-11T03:33:59.253Z,73.27
2018-10-11T03:34:59.222Z,73.06
2018-10-11T03:35:59.209Z,73.57
2018-10-11T03:36:59.196Z,72.96
2018-10-11T03:37:59.206Z,72.55
2018-10-11T03:38:59.183Z,72.96
2018-10-11T03:39:59.172Z,72.92
2018-10-11T03:40:59.154Z,72.96
2018-10-11T03:41:59.196Z,72.55
2018-10-11T03:42:59.137Z,72.65
2018-10-11T03:43:59.156Z,73.16
2018-10-11T03:44:59.164Z,72.82
2018-10-11T03:45:59.102Z,72.92
2018-10-11T03:46:59.092Z,72.34
2018-10-11T03:47:59.089Z,72.62
2018-10-11T03:48:59.074Z,71.90
2018-10-11T03:49:59.094Z,71.59
2018-10-11T03:50:59.050Z,71.56
2018-10-11T03:51:59.065Z,71.46
2018-10-11T03:52:59.041Z,71.56
2018-10-11T03:53:59.031Z,71.36
2018-10-11T03:54:59.030Z,71.25
2018-10-11T03:55:58.998Z,70.84
2018-10-11T03:56:59.008Z,71.05
2018-10-11T03:57:58.988Z,69.28
2018-10-11T03:58:58.976Z,69.69
2018-10-11T03:59:58.962Z,69.59
2018-10-11T04:00:58.980Z,68.97
2018-10-11T04:01:58.940Z,68.97
2018-10-11T04:02:58.922Z,69.18
2018-10-11T04:03:58.915Z,69.93
2018-10-11T04:04:58.930Z,71.25
2018-10-11T04:05:58.893Z,70.98
2018-10-11T04:06:58.904Z,70.88
2018-10-11T04:07:58.891Z,71.29
2018-10-11T04:08:58.853Z,71.49
2018-10-11T04:09:58.857Z,71.49
2018-10-11T04:10:58.883Z,71.29
2018-10-11T04:11:58.831Z,71.49
2018-10-11T04:12:58.815Z,70.98
2018-10-11T04:13:58.804Z,70.98
2018-10-11T04:14:58.790Z,70.98
2018-10-11T04:15:58.808Z,71.08
2018-10-11T04:16:58.770Z,71.29
2018-10-11T04:17:58.778Z,71.49
2018-10-11T04:18:58.748Z,71.08
2018-10-11T04:19:58.742Z,71.49
2018-10-11T04:20:58.737Z,71.29
2018-10-11T04:21:58.720Z,71.49
2018-10-11T04:22:58.701Z,71.49
2018-10-11T04:23:58.697Z,71.29
2018-10-11T04:24:58.695Z,71.08
2018-10-11T04:25:58.692Z,70.98
2018-10-11T04:26:58.671Z,70.78
2018-10-11T04:27:58.650Z,70.88
2018-10-11T04:28:58.650Z,71.29
2018-10-11T04:29:58.686Z,71.62
2018-10-11T04:30:58.639Z,71.29
2018-10-11T04:31:58.633Z,71.70
2018-10-11T04:32:58.604Z,71.08
2018-10-11T04:33:58.605Z,71.19
2018-10-11T04:34:58.600Z,71.19
2018-10-11T04:35:58.588Z,71.29
2018-10-11T04:36:58.578Z,71.29
2018-10-11T04:37:58.566Z,71.08
2018-10-11T04:38:58.547Z,70.98
2018-10-11T04:39:58.537Z,71.08
2018-10-11T04:40:58.530Z,70.98
2018-10-11T04:41:58.517Z,71.08
2018-10-11T04:42:58.633Z,71.08
2018-10-11T04:43:58.484Z,70.98
2018-10-11T04:44:58.477Z,71.08
2018-10-11T04:45:58.467Z,71.08
2018-10-11T04:46:58.454Z,71.29
2018-10-11T04:47:58.459Z,70.88
2018-10-11T04:48:58.426Z,71.08
2018-10-11T04:49:58.420Z,71.29
2018-10-11T04:50:58.411Z,71.49
2018-10-11T04:51:58.415Z,71.29
2018-10-11T04:52:58.382Z,71.29
2018-10-11T04:53:58.376Z,71.19
2018-10-11T04:54:58.359Z,70.78
2018-10-11T04:55:58.365Z,71.08
2018-10-11T04:56:58.355Z,70.37
2018-10-11T04:57:58.357Z,70.57
2018-10-11T04:58:58.330Z,70.06
2018-10-11T04:59:58.314Z,69.75
2018-10-11T05:00:58.361Z,69.55
2018-10-11T05:01:58.304Z,69.65
2018-10-11T05:02:58.305Z,69.85
2018-10-11T05:03:58.312Z,69.65
2018-10-11T05:04:58.291Z,68.39
2018-10-11T05:05:58.244Z,68.19
2018-10-11T05:06:58.276Z,68.08
2018-10-11T05:07:58.265Z,66.86
2018-10-11T05:08:58.209Z,67.54
2018-10-11T05:09:58.233Z,67.03
2018-10-11T05:10:58.198Z,66.83
2018-10-11T05:11:58.195Z,66.21
2018-10-11T05:12:58.183Z,65.88
2018-10-11T05:13:58.161Z,64.96
2018-10-11T05:14:58.156Z,64.86
2018-10-11T05:15:58.147Z,64.83
2018-10-11T05:16:58.134Z,64.62
2018-10-11T05:17:58.143Z,64.11
2018-10-11T05:18:58.128Z,63.60
2018-10-11T05:19:58.096Z,63.67
2018-10-11T05:20:58.125Z,63.26
2018-10-11T05:21:58.101Z,63.26
2018-10-11T05:22:58.071Z,63.26
2018-10-11T05:23:58.056Z,63.23
2018-10-11T05:24:58.046Z,62.32
2018-10-11T05:25:58.067Z,62.85
2018-10-11T05:26:58.044Z,62.82
2018-10-11T05:27:58.009Z,61.91
2018-10-11T05:28:58.000Z,61.80
2018-10-11T05:29:57.995Z,61.71
2018-10-11T05:30:57.991Z,61.91
2018-10-11T05:31:57.967Z,61.91
2018-10-11T05:32:57.993Z,61.60
2018-10-11T05:33:57.984Z,61.91
2018-10-11T05:34:57.930Z,61.80
2018-10-11T05:35:57.933Z,61.68
2018-10-11T05:36:57.968Z,61.91
2018-10-11T05:37:57.898Z,62.82
2018-10-11T05:38:57.925Z,62.80
2018-10-11T05:39:57.931Z,62.82
2018-10-11T05:40:57.876Z,61.78
2018-10-11T05:41:57.894Z,61.47
2018-10-11T05:42:57.854Z,61.91
2018-10-11T05:43:57.837Z,61.19
2018-10-11T05:44:57.838Z,61.80
2018-10-11T05:45:57.823Z,62.73
2018-10-11T05:46:57.830Z,61.78
2018-10-11T05:47:57.822Z,61.91
2018-10-11T05:48:57.803Z,62.42
2018-10-11T05:49:57.790Z,61.78
2018-10-11T05:50:57.762Z,62.32
2018-10-11T05:51:57.754Z,61.80
2018-10-11T05:52:57.741Z,61.88
2018-10-11T05:53:57.732Z,62.39
2018-10-11T05:54:57.723Z,62.90
2018-10-11T05:55:57.721Z,62.90
2018-10-11T05:56:57.716Z,62.80
2018-10-11T05:57:57.688Z,63.13
2018-10-11T05:58:57.672Z,62.82
2018-10-11T05:59:57.670Z,62.73
2018-10-11T06:00:57.738Z,63.13
2018-10-11T06:01:57.648Z,62.93
2018-10-11T06:02:57.649Z,62.93
2018-10-11T06:03:57.942Z,63.13
2018-10-11T06:04:57.763Z,63.23
2018-10-11T06:05:57.636Z,62.42
2018-10-11T06:06:57.608Z,63.03
2018-10-11T06:07:57.586Z,61.91
2018-10-11T06:08:57.570Z,62.01
2018-10-11T06:09:57.561Z,61.80
2018-10-11T06:10:57.547Z,62.11
2018-10-11T06:11:57.608Z,62.01
2018-10-11T06:12:57.588Z,61.88
2018-10-11T06:13:57.518Z,61.37
2018-10-11T06:14:57.502Z,61.68
2018-10-11T06:15:57.495Z,61.37
2018-10-11T06:16:57.499Z,61.24
2018-10-11T06:17:57.593Z,61.47
2018-10-11T06:18:57.510Z,61.24
2018-10-11T06:19:57.450Z,61.07
2018-10-11T06:20:57.442Z,61.27
2018-10-11T06:21:57.449Z,61.14
2018-10-11T06:22:57.414Z,61.14
2018-10-11T06:23:57.513Z,61.34
2018-10-11T06:24:57.447Z,61.65
2018-10-11T06:25:57.456Z,61.04
2018-10-11T06:26:57.558Z,61.14
2018-10-11T06:27:57.380Z,60.83
2018-10-11T06:28:57.358Z,60.63
2018-10-11T06:29:57.385Z,61.14
2018-10-11T06:30:57.384Z,61.14
2018-10-11T06:31:57.337Z,61.85
2018-10-11T06:32:57.363Z,60.83
2018-10-11T06:33:57.320Z,60.73
2018-10-11T06:34:57.305Z,60.83
2018-10-11T06:35:57.372Z,60.73
2018-10-11T06:36:57.282Z,60.73
2018-10-11T06:37:57.277Z,61.04
2018-10-11T06:38:57.358Z,61.24
2018-10-11T06:39:57.234Z,61.41
2018-10-11T06:40:57.247Z,61.41
2018-10-11T06:41:57.268Z,61.31
2018-10-11T06:42:57.252Z,60.80
2018-10-11T06:43:57.196Z,60.80
2018-10-11T06:44:57.247Z,61.21
2018-10-11T06:45:57.173Z,61.00
2018-10-11T06:46:57.158Z,61.21
2018-10-11T06:47:57.210Z,61.11
2018-10-11T06:48:57.163Z,61.11
2018-10-11T06:49:57.272Z,61.00
2018-10-11T06:50:57.127Z,61.11
2018-10-11T06:51:57.127Z,60.91
2018-10-11T06:52:57.105Z,60.47
2018-10-11T06:53:57.138Z,60.19
2018-10-11T06:54:57.095Z,60.27
2018-10-11T06:55:57.148Z,59.45
2018-10-11T06:56:57.104Z,60.37
2018-10-11T06:57:57.074Z,60.75
2018-10-11T06:58:57.057Z,60.03
2018-10-11T06:59:57.044Z,60.54
2018-10-11T07:00:57.013Z,61.18
2018-10-11T07:01:57.076Z,61.69
2018-10-11T07:02:57.008Z,60.85
2018-10-11T07:03:56.999Z,61.25
2018-10-11T07:04:56.965Z,61.36
2018-10-11T07:05:56.953Z,60.85
2018-10-11T07:06:56.942Z,60.44
2018-10-11T07:07:56.931Z,60.64
2018-10-11T07:08:56.940Z,60.44
2018-10-11T07:09:56.919Z,60.34
2018-10-11T07:10:56.902Z,60.64
2018-10-11T07:11:56.898Z,60.64
2018-10-11T07:12:56.893Z,60.61
2018-10-11T07:13:56.914Z,59.39
2018-10-11T07:14:56.866Z,59.50
2018-10-11T07:15:56.850Z,60.11
2018-10-11T07:16:56.847Z,60.61
2018-10-11T07:17:56.836Z,60.49
2018-10-11T07:18:56.838Z,60.28
2018-10-11T07:19:56.809Z,60.38
2018-10-11T07:20:56.823Z,60.59
2018-10-11T07:21:56.783Z,60.79
2018-10-11T07:22:56.776Z,59.77
2018-10-11T07:23:56.768Z,59.98
2018-10-11T07:24:56.783Z,58.86
2018-10-11T07:25:56.869Z,59.47
2018-10-11T07:26:56.732Z,59.37
2018-10-11T07:27:56.717Z,59.16
2018-10-11T07:28:56.707Z,59.57
2018-10-11T07:29:56.739Z,59.57
2018-10-11T07:30:56.700Z,59.34
2018-10-11T07:31:56.705Z,59.47
2018-10-11T07:32:56.701Z,59.47
2018-10-11T07:33:56.654Z,59.34
2018-10-11T07:34:56.738Z,59.54
2018-10-11T07:35:56.642Z,60.46
2018-10-11T07:36:56.627Z,59.44
2018-10-11T07:37:56.621Z,59.34
2018-10-11T07:38:56.606Z,58.42
2018-10-11T07:39:56.610Z,57.99
2018-10-11T07:40:56.643Z,57.89
2018-10-11T07:41:56.570Z,59.14
2018-10-11T07:42:56.562Z,58.29
2018-10-11T07:43:56.573Z,58.29
2018-10-11T07:44:56.551Z,58.29
2018-10-11T07:45:56.630Z,58.60
2018-10-11T07:46:56.612Z,59.18
2018-10-11T07:47:56.529Z,59.18
2018-10-11T07:48:56.527Z,59.28
2018-10-11T07:49:56.541Z,58.37
2018-10-11T07:50:56.569Z,57.66
2018-10-11T07:51:56.467Z,58.37
2018-10-11T07:52:56.521Z,59.18
2018-10-11T07:53:56.441Z,58.98
2018-10-11T07:54:56.444Z,57.43
2018-10-11T07:55:56.428Z,57.12
2018-10-11T07:56:56.460Z,56.62
2018-10-11T07:57:56.402Z,57.12
2018-10-11T07:58:56.396Z,57.53
2018-10-11T07:59:56.375Z,56.72
2018-10-11T08:00:56.365Z,56.59
2018-10-11T08:01:56.401Z,56.09
2018-10-11T08:02:56.374Z,56.49
2018-10-11T08:03:56.343Z,55.27
2018-10-11T08:04:56.329Z,53.75
2018-10-11T08:05:56.323Z,54.16
2018-10-11T08:06:56.322Z,54.66
2018-10-11T08:07:56.292Z,54.74
2018-10-11T08:08:56.372Z,54.33
2018-10-11T08:09:56.271Z,53.63
2018-10-11T08:10:56.394Z,54.13
2018-10-11T08:11:56.438Z,54.44
2018-10-11T08:12:56.246Z,54.24
2018-10-11T08:14:21.716Z,54.44
2018-10-11T08:15:21.698Z,54.11
2018-10-11T08:16:21.875Z,54.71
2018-10-11T08:17:22.021Z,53.30
2018-10-11T08:18:21.717Z,54.28
2018-10-11T08:19:21.791Z,53.37
2018-10-11T08:20:21.700Z,53.47
2018-10-11T08:21:21.630Z,53.98
2018-10-11T08:22:21.619Z,53.17
2018-10-11T08:23:21.645Z,53.37
2018-10-11T08:24:21.659Z,53.58
2018-10-11T08:25:21.809Z,53.67
2018-10-11T08:26:21.761Z,53.14
2018-10-11T08:27:21.677Z,53.58
2018-10-11T08:28:21.623Z,53.88
2018-10-11T08:29:21.544Z,52.84
2018-10-11T08:30:21.548Z,53.55
2018-10-11T08:31:21.522Z,53.25
2018-10-11T08:32:21.708Z,53.55
2018-10-11T08:33:21.515Z,53.96
2018-10-11T08:34:21.525Z,53.55
2018-10-11T08:35:21.482Z,54.76
2018-10-11T08:36:21.473Z,54.56
2018-10-11T08:37:21.457Z,54.53
2018-10-11T08:38:21.497Z,53.52
2018-10-11T08:39:21.484Z,54.94
2018-10-11T08:40:21.427Z,53.12
2018-10-11T08:41:21.449Z,53.72
2018-10-11T08:42:21.414Z,53.32
2018-10-11T08:43:21.411Z,53.42
2018-10-11T08:44:21.501Z,53.52
2018-10-11T08:45:21.396Z,53.80
2018-10-11T08:46:21.357Z,54.11
2018-10-11T08:47:21.404Z,54.00
2018-10-11T08:48:21.350Z,54.41
2018-10-11T08:49:21.338Z,53.90
2018-10-11T08:50:21.447Z,53.47
2018-10-11T08:51:21.305Z,54.08
2018-10-11T08:52:21.304Z,54.79
2018-10-11T08:53:21.305Z,55.09
2018-10-11T08:54:21.272Z,56.30
2018-10-11T08:55:21.317Z,55.69
2018-10-11T08:56:21.259Z,55.67
2018-10-11T08:57:21.257Z,55.47
2018-10-11T08:58:21.249Z,55.47
2018-10-11T08:59:21.379Z,55.27
2018-10-11T09:00:21.234Z,54.46
2018-10-11T09:01:21.212Z,54.66
2018-10-11T09:02:21.203Z,54.86
2018-10-11T09:03:21.277Z,54.63
2018-10-11T09:04:21.179Z,53.93
2018-10-11T09:05:21.156Z,53.30
2018-10-11T09:06:21.156Z,53.72
2018-10-11T09:07:21.136Z,52.19
2018-10-11T09:08:21.203Z,52.79
2018-10-11T09:09:21.116Z,52.56
2018-10-11T09:10:21.117Z,52.76
2018-10-11T09:11:21.166Z,52.97
2018-10-11T09:12:21.087Z,52.84
2018-10-11T09:13:21.079Z,50.65
2018-10-11T09:14:21.081Z,50.42
2018-10-11T09:15:21.049Z,50.93
2018-10-11T09:16:21.086Z,51.64
2018-10-11T09:17:21.039Z,51.31
2018-10-11T09:18:21.032Z,51.71
2018-10-11T09:19:21.033Z,52.01
2018-10-11T09:20:21.050Z,52.31
2018-10-11T09:21:21.004Z,52.01
2018-10-11T09:22:21.011Z,50.78
2018-10-11T09:23:21.003Z,49.97
2018-10-11T09:24:20.963Z,50.96
2018-10-11T09:25:21.001Z,50.25
2018-10-11T09:26:20.962Z,51.06
2018-10-11T09:27:20.935Z,51.54
2018-10-11T09:28:20.929Z,50.63
2018-10-11T09:29:20.928Z,49.93
2018-10-11T09:30:20.992Z,49.40
2018-10-11T09:31:20.888Z,50.81
2018-10-11T09:32:20.909Z,49.77
2018-10-11T09:33:20.869Z,50.56
2018-10-11T09:34:20.843Z,49.05
2018-10-11T09:35:20.843Z,49.63
2018-10-11T09:36:20.838Z,48.52
2018-10-11T09:37:20.832Z,47.90
2018-10-11T09:38:20.803Z,47.07
2018-10-11T09:39:20.810Z,47.65
2018-10-11T09:40:20.798Z,46.62
2018-10-11T09:41:20.776Z,46.20
2018-10-11T09:42:20.764Z,45.88
2018-10-11T09:43:20.764Z,45.06
2018-10-11T09:44:20.746Z,44.42
2018-10-11T09:45:20.780Z,42.85
2018-10-11T09:46:20.721Z,40.89
2018-10-11T09:47:20.729Z,38.82
2018-10-11T09:48:20.703Z,37.58
2018-10-11T09:49:20.710Z,35.64
2018-10-11T09:50:20.674Z,34.88
2018-10-11T09:51:20.670Z,33.95
2018-10-11T09:52:20.658Z,32.62
2018-10-11T09:53:20.651Z,32.39
2018-10-11T09:54:20.665Z,31.06
2018-10-11T09:55:20.622Z,31.62
2018-10-11T09:56:20.615Z,29.80
2018-10-11T09:57:20.611Z,28.31
2018-10-11T09:58:20.602Z,28.19
2018-10-11T09:59:20.587Z,27.46
2018-10-11T10:00:20.590Z,27.34
2018-10-11T10:01:20.568Z,25.45
2018-10-11T10:02:20.575Z,25.54
2018-10-11T10:03:20.564Z,25.43
2018-10-11T10:04:20.534Z,25.79
2018-10-11T10:05:20.530Z,25.49
2018-10-11T10:06:20.522Z,25.07
2018-10-11T10:07:20.516Z,24.66
2018-10-11T10:08:20.491Z,23.86
2018-10-11T10:09:20.482Z,23.38
2018-10-11T10:10:20.463Z,23.29
2018-10-11T10:11:20.454Z,23.47
2018-10-11T10:12:20.452Z,23.07
2018-10-11T10:13:20.447Z,23.25
2018-10-11T10:14:20.431Z,23.83
2018-10-11T10:15:20.413Z,23.13
2018-10-11T10:16:20.402Z,22.06
2018-10-11T10:17:20.396Z,22.34
2018-10-11T10:18:20.386Z,22.42
2018-10-11T10:19:20.392Z,22.62
2018-10-11T10:20:20.955Z,22.42
2018-10-11T10:21:20.449Z,22.13
2018-10-11T10:22:20.344Z,22.42
2018-10-11T10:23:20.342Z,22.14
2018-10-11T10:24:20.326Z,22.02
2018-10-11T10:25:20.331Z,22.30
2018-10-11T10:26:20.308Z,22.19
2018-10-11T10:27:20.412Z,21.99
2018-10-11T10:28:20.291Z,21.99
2018-10-11T10:29:20.277Z,21.12
2018-10-11T10:30:20.283Z,20.92
2018-10-11T10:31:20.255Z,20.90
2018-10-11T10:32:20.251Z,21.39
2018-10-11T10:33:20.311Z,21.58
2018-10-11T10:34:20.231Z,20.71
2018-10-11T10:35:20.217Z,21.00
2018-10-11T10:36:20.206Z,21.10
2018-10-11T10:37:20.217Z,20.99
2018-10-11T10:38:20.184Z,20.52
2018-10-11T10:39:20.180Z,20.03
2018-10-11T10:40:20.172Z,20.42
2018-10-11T10:41:20.162Z,20.21
2018-10-11T10:42:20.172Z,19.93
2018-10-11T10:43:20.137Z,20.40
2018-10-11T10:44:20.134Z,20.11
2018-10-11T10:45:20.146Z,20.20
2018-10-11T10:46:20.107Z,20.38
2018-10-11T10:47:20.114Z,19.90
2018-10-11T10:48:20.141Z,19.90
2018-10-11T10:49:20.097Z,20.08
2018-10-11T10:50:20.089Z,20.19
2018-10-11T10:51:20.059Z,19.42
2018-10-11T10:52:20.096Z,20.37
2018-10-11T10:53:20.049Z,19.79
2018-10-11T10:54:20.182Z,19.00
2018-10-11T10:55:20.026Z,19.59
2018-10-11T10:56:20.013Z,19.68
2018-10-11T10:57:20.021Z,18.80
2018-10-11T10:58:19.999Z,19.29
2018-10-11T10:59:19.989Z,18.51
2018-10-11T11:00:20.014Z,18.42
2018-10-11T11:01:19.966Z,19.30
2018-10-11T11:02:19.958Z,19.01
2018-10-11T11:03:19.953Z,19.29
2018-10-11T11:04:19.939Z,19.20
2018-10-11T11:05:19.959Z,19.28
2018-10-11T11:06:19.939Z,18.99
2018-10-11T11:07:19.988Z,18.50
2018-10-11T11:08:19.912Z,18.59
2018-10-11T11:09:19.923Z,18.59
2018-10-11T11:10:19.885Z,18.30
2018-10-11T11:11:19.896Z,18.30
2018-10-11T11:12:19.886Z,18.30
2018-10-11T11:13:19.981Z,18.51
2018-10-11T11:14:19.844Z,18.30
2018-10-11T11:15:19.837Z,18.78
2018-10-11T11:16:19.832Z,17.71
2018-10-11T11:17:19.857Z,17.71
2018-10-11T11:18:19.826Z,18.95
2018-10-11T11:19:19.794Z,18.18
2018-10-11T11:20:19.826Z,18.28
2018-10-11T11:21:19.805Z,18.29
2018-10-11T11:22:19.788Z,17.82
2018-10-11T11:23:19.775Z,18.58
2018-10-11T11:24:19.755Z,18.28
2018-10-11T11:25:19.798Z,18.86
2018-10-11T11:26:19.734Z,18.85
2018-10-11T11:27:19.720Z,18.08
2018-10-11T11:28:19.733Z,18.57
2018-10-11T11:29:19.709Z,18.48
2018-10-11T11:30:19.723Z,18.08
2018-10-11T11:31:19.706Z,17.88
2018-10-11T11:32:19.678Z,18.48
2018-10-11T11:33:19.732Z,18.18
2018-10-11T11:34:19.668Z,17.98
2018-10-11T11:35:19.660Z,17.69
2018-10-11T11:36:19.642Z,17.40
2018-10-11T11:37:19.640Z,17.88
2018-10-11T11:38:19.629Z,17.39
2018-10-11T11:39:19.669Z,17.76
2018-10-11T11:40:19.616Z,18.05
2018-10-11T11:41:19.603Z,17.47
2018-10-11T11:42:19.690Z,17.38
2018-10-11T11:43:19.586Z,18.52
2018-10-11T11:44:19.593Z,18.06
2018-10-11T11:45:19.561Z,17.59
2018-10-11T11:46:19.551Z,18.55
2018-10-11T11:47:19.567Z,18.84
2018-10-11T11:48:19.548Z,18.07
2018-10-11T11:49:19.674Z,18.35
2018-10-11T11:50:19.541Z,17.60
2018-10-11T11:51:19.512Z,17.99
2018-10-11T11:52:19.510Z,18.18
2018-10-11T11:53:19.507Z,18.37
2018-10-11T11:54:19.490Z,18.18
2018-10-11T11:55:19.504Z,18.48
2018-10-11T11:56:19.470Z,18.08
2018-10-11T11:57:19.472Z,18.95
2018-10-11T11:58:19.456Z,18.66
2018-10-11T11:59:19.450Z,18.66
2018-10-11T12:00:19.468Z,18.08
2018-10-11T12:01:19.426Z,18.08
2018-10-11T12:02:19.431Z,19.07
2018-10-11T12:03:19.428Z,19.07
2018-10-11T12:04:19.404Z,19.85
2018-10-11T12:05:19.390Z,18.12
2018-10-11T12:06:19.383Z,18.53
2018-10-11T12:07:19.415Z,20.18
2018-10-11T12:08:19.354Z,19.59
2018-10-11T12:09:19.358Z,19.98
2018-10-11T12:10:19.361Z,20.07
2018-10-11T12:11:19.327Z,20.08
2018-10-11T12:12:19.332Z,19.22
2018-10-11T12:13:19.309Z,19.90
2018-10-11T12:14:19.312Z,19.62
2018-10-11T12:15:19.291Z,19.98
2018-10-11T12:16:19.277Z,20.56
2018-10-11T12:17:19.290Z,20.00
2018-10-11T12:18:19.267Z,20.48
2018-10-11T12:19:19.272Z,20.00
2018-10-11T12:20:19.243Z,19.98
2018-10-11T12:21:19.252Z,19.32
2018-10-11T12:22:19.225Z,20.08
2018-10-11T12:23:19.217Z,19.22
2018-10-11T12:24:19.221Z,19.80
2018-10-11T12:25:19.199Z,19.79
2018-10-11T12:26:19.193Z,20.18
2018-10-11T12:27:19.183Z,19.68
2018-10-11T12:28:19.196Z,18.53
2018-10-11T12:29:19.156Z,18.64
2018-10-11T12:30:19.155Z,18.75
2018-10-11T12:31:19.152Z,19.94
2018-10-11T12:32:19.123Z,20.12
2018-10-11T12:33:19.122Z,19.92
2018-10-11T12:34:19.106Z,20.78
2018-10-11T12:35:19.148Z,21.55
2018-10-11T12:36:19.150Z,21.34
2018-10-11T12:37:19.096Z,20.86
2018-10-11T12:38:19.068Z,21.04
2018-10-11T12:39:19.062Z,20.26
2018-10-11T12:40:19.056Z,19.89
2018-10-11T12:41:19.052Z,19.88
2018-10-11T12:42:19.084Z,20.07
2018-10-11T12:43:19.019Z,20.17
2018-10-11T12:44:19.039Z,20.28
2018-10-11T12:45:19.102Z,21.24
2018-10-11T12:46:18.995Z,20.19
2018-10-11T12:47:19.002Z,21.07
2018-10-11T12:48:18.970Z,22.05
2018-10-11T12:49:19.039Z,21.96
2018-10-11T12:50:18.966Z,21.48
2018-10-11T12:51:18.981Z,21.20
2018-10-11T12:52:18.935Z,22.09